Time;durP1;ratioP1;P1;durP2;ratioP2;P2;SDS_P1;SDS_P2;PMS_P1;PMS_P2;Temp;Humidity;BMP_temperature;BMP_pressure;BME280_temperature;BME280_humidity;BME280_pressure;Samples;Min_cycle;Max_cycle;Signal;HPM_P1;HPM_P2
2022/08/04 00:00:23;;;;;;;2.05;0.88;;;21.90;99.90;;;;;;4976245;28;20096;-69
2022/08/04 00:03:13;;;;;;;2.13;0.50;;;21.90;99.90;;;;;;4973390;28;20047;-70
2022/08/04 00:06:01;;;;;;;6.10;1.05;;;21.80;99.90;;;;;;4975770;28;20061;-69
2022/08/04 00:08:49;;;;;;;5.13;0.60;;;21.80;99.90;;;;;;4989608;28;20038;-69
2022/08/04 00:11:22;;;;;;;2.28;0.63;;;21.80;99.90;;;;;;4979471;28;20229;-71
2022/08/04 00:14:06;;;;;;;4.75;0.93;;;21.80;99.90;;;;;;4976047;28;20053;-69
2022/08/04 00:16:36;;;;;;;3.50;0.75;;;21.70;99.90;;;;;;4979940;28;20061;-70
2022/08/04 00:19:42;;;;;;;2.57;0.70;;;21.70;99.90;;;;;;4974516;28;20035;-69
2022/08/04 00:22:10;;;;;;;4.53;0.68;;;21.70;99.90;;;;;;4981802;28;20634;-70
2022/08/04 00:24:36;;;;;;;3.63;0.80;;;21.70;99.90;;;;;;4982041;28;20073;-70
2022/08/04 00:27:02;;;;;;;1.65;0.70;;;21.70;99.90;;;;;;4978733;28;20039;-70
2022/08/04 00:29:28;;;;;;;3.25;1.00;;;21.70;99.90;;;;;;4975152;28;20026;-70
2022/08/04 00:31:57;;;;;;;3.05;0.88;;;21.70;99.90;;;;;;4975047;28;20042;-70
2022/08/04 00:34:27;;;;;;;4.88;0.90;;;21.70;99.90;;;;;;4973876;28;20043;-70
2022/08/04 00:36:54;;;;;;;3.75;0.85;;;21.70;99.90;;;;;;4974263;28;20663;-70
2022/08/04 00:39:21;;;;;;;5.20;0.65;;;21.70;99.90;;;;;;4979322;28;20487;-71
2022/08/04 00:42:12;;;;;;;3.47;0.50;;;21.70;99.90;;;;;;5014389;28;20509;-69
2022/08/04 00:44:38;;;;;;;4.30;0.90;;;21.70;99.90;;;;;;4979494;28;20034;-71
2022/08/04 00:47:40;;;;;;;4.80;0.60;;;21.70;99.90;;;;;;5008337;28;20046;-70
2022/08/04 00:50:30;;;;;;;3.00;0.65;;;21.60;99.90;;;;;;4980300;28;20030;-68
2022/08/04 00:53:02;;;;;;;3.00;0.88;;;21.60;99.90;;;;;;4979248;28;20046;-69
2022/08/04 00:55:58;;;;;;;4.22;0.93;;;21.60;99.90;;;;;;4978373;28;20557;-70
2022/08/04 00:58:48;;;;;;;3.45;0.90;;;21.60;99.90;;;;;;4979985;28;20509;-70
2022/08/04 01:01:42;;;;;;;4.38;0.68;;;21.60;99.90;;;;;;4979618;28;20034;-70
2022/08/04 01:04:32;;;;;;;3.97;0.73;;;21.60;99.90;;;;;;4978586;28;20038;-69
2022/08/04 01:07:29;;;;;;;8.82;0.95;;;21.50;99.90;;;;;;4980563;28;20501;-69
2022/08/04 01:10:07;;;;;;;1.38;0.60;;;21.50;99.90;;;;;;4979503;28;20045;-71
2022/08/04 01:13:09;;;;;;;2.47;0.85;;;21.50;99.90;;;;;;4977980;28;20527;-70
2022/08/04 01:15:58;;;;;;;5.30;0.50;;;21.50;99.90;;;;;;4984102;28;20038;-70
2022/08/04 01:18:48;;;;;;;5.20;1.13;;;21.50;99.90;;;;;;4981634;28;20042;-70
2022/08/04 01:21:17;;;;;;;3.97;1.20;;;21.50;99.90;;;;;;4978084;28;20434;-70
2022/08/04 01:24:16;;;;;;;3.03;0.80;;;21.40;99.90;;;;;;5010320;28;20043;-70
2022/08/04 01:27:05;;;;;;;2.00;0.60;;;21.40;99.90;;;;;;4983663;28;20043;-68
2022/08/04 01:29:36;;;;;;;2.78;0.77;;;21.40;99.90;;;;;;4982441;28;20038;-70
2022/08/04 01:32:17;;;;;;;4.72;1.00;;;21.40;99.90;;;;;;4986951;28;20042;-70
2022/08/04 01:35:22;;;;;;;4.82;0.88;;;21.30;99.90;;;;;;4979543;28;20092;-69
2022/08/04 01:38:00;;;;;;;2.40;0.80;;;21.30;99.90;;;;;;4975245;28;20058;-70
2022/08/04 01:40:26;;;;;;;4.57;0.80;;;21.30;99.90;;;;;;4978026;28;20045;-71
2022/08/04 01:42:54;;;;;;;5.65;0.98;;;21.30;99.90;;;;;;4976819;28;20038;-70
2022/08/04 01:45:23;;;;;;;3.95;0.60;;;21.30;99.90;;;;;;4976900;28;20035;-71
2022/08/04 01:47:54;;;;;;;3.30;0.93;;;21.20;99.90;;;;;;4977686;28;20103;-69
2022/08/04 01:50:20;;;;;;;;;;;21.20;99.90;;;;;;4977529;28;20035;-70
2022/08/04 01:52:46;;;;;;;3.75;1.02;;;21.10;99.90;;;;;;4977241;28;20004;-70
2022/08/04 01:55:14;;;;;;;2.92;0.80;;;21.20;99.90;;;;;;4974291;28;20053;-70
2022/08/04 01:57:51;;;;;;;5.07;0.73;;;21.20;99.90;;;;;;4979226;28;20121;-71
2022/08/04 02:00:25;;;;;;;3.55;0.88;;;21.10;99.90;;;;;;4976231;28;20058;-69
2022/08/04 02:02:51;;;;;;;5.18;1.27;;;21.20;99.90;;;;;;4976488;28;20042;-70
2022/08/04 02:05:19;;;;;;;5.90;1.10;;;21.20;99.90;;;;;;4976319;28;20057;-70
2022/08/04 02:07:53;;;;;;;2.55;0.70;;;21.20;99.90;;;;;;4977013;28;20034;-69
2022/08/04 02:10:27;;;;;;;3.47;0.75;;;21.20;99.90;;;;;;4976310;28;20081;-71
2022/08/04 02:13:06;;;;;;;1.77;0.65;;;21.20;99.90;;;;;;4974316;28;20118;-70
2022/08/04 02:16:23;;;;;;;3.88;0.77;;;21.10;99.90;;;;;;4981491;28;20425;-71
2022/08/04 02:19:08;;;;;;;1.58;0.82;;;21.10;99.90;;;;;;4994844;28;20133;-69
2022/08/04 02:21:35;;;;;;;5.15;0.70;;;21.10;99.90;;;;;;4979045;28;20073;-70
2022/08/04 02:24:05;;;;;;;2.35;1.42;;;21.10;99.90;;;;;;4976919;28;20038;-70
2022/08/04 02:26:32;;;;;;;3.20;0.85;;;21.00;99.90;;;;;;4982024;28;20118;-70
2022/08/04 02:29:12;;;;;;;1.95;0.60;;;21.00;99.90;;;;;;4976564;28;20058;-71
2022/08/04 02:31:58;;;;;;;4.07;1.05;;;21.00;99.90;;;;;;4979132;28;20034;-71
2022/08/04 02:34:28;;;;;;;2.72;0.70;;;21.00;99.90;;;;;;4973822;28;20070;-70
2022/08/04 02:36:54;;;;;;;4.27;1.00;;;21.00;99.90;;;;;;4976040;28;20039;-70
2022/08/04 02:39:22;;;;;;;5.45;1.08;;;21.00;99.90;;;;;;4976851;28;20027;-70
2022/08/04 02:41:53;;;;;;;3.88;0.77;;;21.00;99.90;;;;;;4976608;28;20042;-70
2022/08/04 02:44:25;;;;;;;3.30;1.10;;;21.00;99.90;;;;;;4975653;28;20118;-70
2022/08/04 02:46:54;;;;;;;4.65;1.52;;;21.00;99.90;;;;;;4975633;28;20046;-70
2022/08/04 02:49:21;;;;;;;2.50;1.00;;;21.00;99.90;;;;;;4984233;28;20037;-70
2022/08/04 02:51:52;;;;;;;4.57;1.15;;;20.90;99.90;;;;;;4981936;28;20488;-69
2022/08/04 02:54:22;;;;;;;4.00;0.80;;;20.90;99.90;;;;;;4975420;28;20483;-69
2022/08/04 02:56:51;;;;;;;6.03;1.10;;;20.90;99.90;;;;;;4976565;28;20043;-69
2022/08/04 02:59:22;;;;;;;1.15;0.60;;;20.90;99.90;;;;;;4976188;28;20380;-70
2022/08/04 03:01:47;;;;;;;3.63;0.95;;;20.90;99.90;;;;;;4975828;28;20035;-70
2022/08/04 03:04:46;;;;;;;4.15;0.90;;;20.90;99.90;;;;;;4976066;28;20045;-71
2022/08/04 03:07:28;;;;;;;2.92;1.00;;;20.90;99.90;;;;;;4980737;28;20026;-71
2022/08/04 03:10:08;;;;;;;4.55;0.90;;;20.90;99.90;;;;;;4976930;28;20038;-70
2022/08/04 03:12:45;;;;;;;;;;;20.90;99.90;;;;;;4978375;28;20038;-71
2022/08/04 03:15:28;;;;;;;5.63;1.13;;;20.90;99.90;;;;;;4979793;28;20075;-70
2022/08/04 03:18:21;;;;;;;4.65;1.20;;;20.90;99.90;;;;;;4974932;28;20041;-69
2022/08/04 03:21:08;;;;;;;6.35;0.98;;;20.80;99.90;;;;;;4999056;28;20046;-71
2022/08/04 03:23:52;;;;;;;3.13;0.90;;;20.80;99.90;;;;;;4978896;28;20524;-70
2022/08/04 03:26:44;;;;;;;2.08;0.82;;;20.80;99.90;;;;;;5014213;28;20396;-69
2022/08/04 03:29:10;;;;;;;1.67;0.65;;;20.80;99.90;;;;;;4975787;28;20030;-70
2022/08/04 03:31:53;;;;;;;4.03;0.90;;;20.80;99.90;;;;;;4974396;28;20046;-69
2022/08/04 03:34:42;;;;;;;3.90;0.93;;;20.70;99.90;;;;;;4974909;28;20038;-69
2022/08/04 03:37:33;;;;;;;3.35;1.20;;;20.70;99.90;;;;;;5009058;28;20101;-70
2022/08/04 03:40:17;;;;;;;4.07;0.85;;;20.70;99.90;;;;;;5005431;28;20043;-70
2022/08/04 03:43:06;;;;;;;3.42;0.93;;;20.70;99.90;;;;;;4997946;28;20174;-70
2022/08/04 03:45:49;;;;;;;3.42;1.00;;;20.80;99.90;;;;;;4977861;28;20042;-70
2022/08/04 03:49:12;;;;;;;3.70;1.35;;;20.80;99.90;;;;;;4982766;28;20046;-71
2022/08/04 03:54:47;;;;;;;4.07;1.23;;;20.80;99.90;;;;;;4975216;28;20133;-68
2022/08/04 03:57:24;;;;;;;8.63;1.52;;;20.80;99.90;;;;;;4970956;28;20384;-71
2022/08/04 04:00:07;;;;;;;4.82;1.50;;;20.80;99.90;;;;;;4976010;28;20054;-71
2022/08/04 04:02:57;;;;;;;4.25;1.38;;;20.80;99.90;;;;;;4976792;28;20173;-70
2022/08/04 04:05:29;;;;;;;7.72;2.30;;;20.80;99.90;;;;;;4976513;28;20399;-70
2022/08/04 04:08:18;;;;;;;8.52;1.58;;;20.80;99.90;;;;;;4974235;28;20038;-70
2022/08/04 04:11:23;;;;;;;4.78;2.05;;;20.80;99.90;;;;;;4977600;28;20047;-71
2022/08/04 04:14:13;;;;;;;6.65;1.60;;;20.80;99.90;;;;;;4979324;28;20112;-70
2022/08/04 04:17:07;;;;;;;12.02;2.05;;;20.80;99.90;;;;;;4981555;28;20418;-70
2022/08/04 04:19:58;;;;;;;3.85;1.65;;;20.70;99.90;;;;;;4981140;28;20033;-70
2022/08/04 04:22:42;;;;;;;;;;;20.70;99.90;;;;;;5012411;28;20557;-70
2022/08/04 04:25:41;;;;;;;8.32;1.63;;;20.70;99.90;;;;;;4989153;28;20020;-68
2022/08/04 04:28:36;;;;;;;5.03;1.30;;;20.70;99.90;;;;;;4979554;28;22230;-68
2022/08/04 04:31:14;;;;;;;5.63;1.90;;;20.80;99.90;;;;;;4999383;28;20041;-70
2022/08/04 04:34:10;;;;;;;3.05;1.30;;;20.80;99.90;;;;;;4976282;28;20043;-70
2022/08/04 04:37:00;;;;;;;2.72;1.25;;;20.80;99.90;;;;;;4976836;28;20043;-71
2022/08/04 04:39:58;;;;;;;7.65;1.67;;;20.80;99.90;;;;;;5005999;28;20117;-70
2022/08/04 04:42:29;;;;;;;8.10;1.67;;;20.80;99.90;;;;;;4979658;28;20026;-69
2022/08/04 04:45:04;;;;;;;6.25;1.40;;;20.90;99.90;;;;;;5002801;28;20042;-70
2022/08/04 04:47:46;;;;;;;4.55;1.10;;;20.90;99.90;;;;;;4979383;28;20105;-70
2022/08/04 04:50:27;;;;;;;3.95;1.48;;;20.90;99.90;;;;;;5001691;28;20065;-70
2022/08/04 04:52:57;;;;;;;5.07;1.02;;;20.90;99.90;;;;;;4973846;28;20034;-69
2022/08/04 04:55:37;;;;;;;3.10;1.48;;;20.90;99.90;;;;;;4976137;28;20040;-69
2022/08/04 04:58:03;;;;;;;5.70;1.73;;;20.90;99.90;;;;;;4977959;28;20038;-70
2022/08/04 05:00:53;;;;;;;1.92;1.17;;;20.90;99.90;;;;;;4976781;28;20068;-71
2022/08/04 05:03:28;;;;;;;3.03;0.88;;;21.00;99.90;;;;;;4982955;28;20141;-71
2022/08/04 05:06:08;;;;;;;5.03;1.90;;;21.00;99.90;;;;;;4981417;28;20062;-71
2022/08/04 05:08:57;;;;;;;6.00;1.67;;;21.00;99.90;;;;;;4979942;28;20035;-71
2022/08/04 05:11:25;;;;;;;5.00;1.13;;;21.10;99.90;;;;;;4983103;28;20042;-69
2022/08/04 05:13:59;;;;;;;9.43;1.30;;;21.10;99.90;;;;;;4984231;28;20401;-69
2022/08/04 05:16:33;;;;;;;10.70;1.75;;;21.10;99.90;;;;;;4981103;28;20038;-70
2022/08/04 05:19:27;;;;;;;5.43;1.23;;;21.20;99.90;;;;;;4981565;28;20030;-71
2022/08/04 05:22:05;;;;;;;8.13;1.63;;;21.30;99.90;;;;;;4977529;28;20113;-70
2022/08/04 05:24:36;;;;;;;6.65;1.40;;;21.30;99.90;;;;;;4981504;28;20088;-71
2022/08/04 05:27:15;;;;;;;5.82;1.65;;;21.40;99.90;;;;;;4983148;28;20027;-70
2022/08/04 05:29:55;;;;;;;8.70;1.52;;;21.40;99.90;;;;;;4982371;28;20047;-71
2022/08/04 05:32:27;;;;;;;5.07;1.13;;;21.50;99.90;;;;;;4981283;28;20038;-70
2022/08/04 05:35:03;;;;;;;4.63;1.40;;;21.50;99.90;;;;;;4980949;28;20125;-69
2022/08/04 05:37:30;;;;;;;2.63;1.13;;;21.50;99.90;;;;;;4981153;28;20034;-71
2022/08/04 05:40:03;;;;;;;4.60;1.50;;;21.50;99.90;;;;;;4984472;28;20071;-70
2022/08/04 05:42:30;;;;;;;5.35;1.33;;;21.50;99.90;;;;;;4982676;28;20058;-69
2022/08/04 05:44:57;;;;;;;4.00;1.35;;;21.50;99.90;;;;;;4982058;28;20050;-70
2022/08/04 05:47:24;;;;;;;4.20;1.45;;;21.60;99.90;;;;;;4982914;28;20056;-71
2022/08/04 05:49:50;;;;;;;6.10;1.60;;;21.60;99.90;;;;;;4984790;28;20085;-70
2022/08/04 05:52:17;;;;;;;2.83;1.27;;;21.60;99.90;;;;;;4982383;28;20109;-71
2022/08/04 05:54:44;;;;;;;4.53;1.52;;;21.70;99.90;;;;;;4982359;28;20061;-71
2022/08/04 05:57:10;;;;;;;3.72;1.92;;;21.70;99.90;;;;;;4985334;28;20122;-71
2022/08/04 05:59:45;;;;;;;7.28;1.52;;;21.80;99.90;;;;;;4983540;28;20512;-71
2022/08/04 06:02:11;;;;;;;6.63;2.15;;;21.80;99.90;;;;;;4981955;28;20391;-69
2022/08/04 06:04:40;;;;;;;3.83;1.63;;;21.90;99.90;;;;;;4983107;28;20073;-71
2022/08/04 06:07:07;;;;;;;1.58;0.98;;;21.90;99.90;;;;;;4984544;28;20117;-69
2022/08/04 06:09:33;;;;;;;3.83;1.33;;;22.00;99.90;;;;;;4985258;28;20104;-71
2022/08/04 06:12:28;;;;;;;5.68;1.10;;;22.00;99.90;;;;;;4983685;28;20075;-70
2022/08/04 06:14:55;;;;;;;4.63;1.20;;;22.10;99.90;;;;;;5012903;28;20042;-68
2022/08/04 06:17:24;;;;;;;3.78;1.48;;;22.10;99.90;;;;;;4983149;28;20036;-70
2022/08/04 06:19:52;;;;;;;4.03;1.17;;;22.10;99.90;;;;;;4983215;28;20069;-71
2022/08/04 06:22:20;;;;;;;5.20;0.90;;;22.10;99.90;;;;;;4981711;28;20882;-70
2022/08/04 06:24:49;;;;;;;6.53;1.20;;;22.10;99.90;;;;;;4981886;28;20045;-70
2022/08/04 06:27:16;;;;;;;4.32;1.10;;;22.20;99.90;;;;;;4984440;28;20048;-69
2022/08/04 06:29:43;;;;;;;4.78;1.20;;;22.10;99.90;;;;;;4984391;28;20145;-69
2022/08/04 06:32:13;;;;;;;4.68;1.25;;;22.20;99.90;;;;;;5014213;28;20937;-69
2022/08/04 06:34:39;;;;;;;4.40;1.23;;;22.20;99.90;;;;;;4982445;28;20033;-69
2022/08/04 06:37:07;;;;;;;5.55;1.35;;;22.30;99.90;;;;;;4982325;28;20078;-71
2022/08/04 06:39:34;;;;;;;5.78;1.50;;;22.40;99.90;;;;;;4983501;28;20046;-70
2022/08/04 06:42:00;;;;;;;3.40;1.20;;;22.50;99.90;;;;;;4981670;28;20053;-70
2022/08/04 06:44:27;;;;;;;5.35;1.70;;;22.50;99.90;;;;;;4979783;28;20035;-71
2022/08/04 06:46:54;;;;;;;7.38;1.27;;;22.60;99.90;;;;;;4982551;28;20100;-71
2022/08/04 06:49:22;;;;;;;4.90;1.33;;;22.70;99.90;;;;;;4983806;28;20649;-70
2022/08/04 06:51:48;;;;;;;8.63;1.42;;;22.80;99.90;;;;;;5013930;28;20092;-69
2022/08/04 06:54:14;;;;;;;7.40;1.20;;;22.80;99.90;;;;;;4978581;28;20044;-69
2022/08/04 06:56:41;;;;;;;5.03;1.48;;;22.80;99.90;;;;;;4981894;28;20065;-71
2022/08/04 06:59:09;;;;;;;4.50;1.15;;;22.80;99.90;;;;;;4980328;28;20413;-69
2022/08/04 07:01:36;;;;;;;3.95;0.80;;;22.80;99.90;;;;;;4981285;28;20038;-71
2022/08/04 07:04:04;;;;;;;6.82;1.00;;;22.80;99.90;;;;;;4980741;28;20530;-70
2022/08/04 07:06:30;;;;;;;3.78;0.85;;;23.00;99.90;;;;;;4983285;28;20133;-69
2022/08/04 07:08:56;;;;;;;5.53;0.85;;;23.30;99.90;;;;;;4981342;28;20031;-67
2022/08/04 07:11:22;;;;;;;9.75;1.15;;;23.40;99.90;;;;;;4979294;28;20053;-71
2022/08/04 07:13:49;;;;;;;3.72;1.05;;;23.50;99.90;;;;;;4980932;28;20038;-70
2022/08/04 07:16:15;;;;;;;8.77;0.95;;;23.50;99.90;;;;;;4982182;28;20110;-69
2022/08/04 07:18:41;;;;;;;5.55;1.30;;;23.70;99.90;;;;;;4982233;28;20077;-71
2022/08/04 07:21:07;;;;;;;6.05;1.00;;;24.10;99.90;;;;;;4981260;28;20530;-70
2022/08/04 07:23:33;;;;;;;3.80;1.15;;;24.50;99.90;;;;;;4981872;28;20038;-71
2022/08/04 07:25:58;;;;;;;2.35;0.73;;;24.90;99.90;;;;;;4985167;28;20031;-70
2022/08/04 07:28:28;;;;;;;4.38;1.00;;;25.10;99.90;;;;;;4981481;28;20030;-71
2022/08/04 07:30:54;;;;;;;;;;;25.30;99.90;;;;;;4981705;28;20066;-71
2022/08/04 07:33:22;;;;;;;3.33;1.05;;;25.40;99.90;;;;;;4981222;28;19913;-70
2022/08/04 07:35:50;;;;;;;3.92;1.10;;;25.70;99.90;;;;;;4979704;28;20045;-70
2022/08/04 07:38:16;;;;;;;1.50;0.57;;;25.90;99.90;;;;;;4976288;28;20773;-71
2022/08/04 07:40:42;;;;;;;6.13;1.08;;;26.10;99.90;;;;;;4984253;28;20194;-70
2022/08/04 07:43:08;;;;;;;8.95;1.63;;;26.20;99.90;;;;;;4982296;28;20038;-70
2022/08/04 07:45:34;;;;;;;6.47;1.30;;;26.40;99.90;;;;;;4981503;28;20426;-71
2022/08/04 07:48:02;;;;;;;4.65;1.05;;;26.40;99.90;;;;;;5015134;28;20042;-70
2022/08/04 07:50:28;;;;;;;5.00;0.95;;;26.40;99.90;;;;;;4982960;28;20498;-71
2022/08/04 07:52:54;;;;;;;6.65;0.85;;;26.20;99.90;;;;;;4984760;28;20049;-70
2022/08/04 07:55:21;;;;;;;5.40;0.80;;;26.10;99.90;;;;;;4989387;28;20037;-71
2022/08/04 07:57:47;;;;;;;5.40;1.25;;;26.00;99.90;;;;;;4987380;28;20101;-71
2022/08/04 08:00:13;;;;;;;7.43;1.25;;;25.90;99.90;;;;;;4984263;28;20038;-68
2022/08/04 08:02:41;;;;;;;4.13;0.63;;;25.90;99.90;;;;;;4986129;28;20104;-69
2022/08/04 08:05:11;;;;;;;3.40;0.85;;;25.80;99.90;;;;;;4987676;28;20034;-70
2022/08/04 08:07:37;;;;;;;8.98;1.05;;;25.70;99.90;;;;;;4987522;28;20051;-70
2022/08/04 08:10:03;;;;;;;2.35;0.98;;;25.60;99.90;;;;;;4982631;28;20046;-69
2022/08/04 08:12:31;;;;;;;3.70;0.88;;;25.50;99.90;;;;;;4985223;28;20061;-71
2022/08/04 08:14:57;;;;;;;5.05;0.90;;;25.50;99.90;;;;;;4984547;28;20141;-70
2022/08/04 08:17:22;;;;;;;4.75;1.15;;;25.50;99.90;;;;;;4988056;28;20037;-70
2022/08/04 08:19:48;;;;;;;7.45;1.23;;;25.60;99.90;;;;;;5014270;28;20514;-70
2022/08/04 08:22:14;;;;;;;6.10;1.05;;;25.80;99.90;;;;;;4985914;28;20061;-71
2022/08/04 08:24:40;;;;;;;6.18;0.57;;;25.80;99.90;;;;;;5016103;28;20508;-69
2022/08/04 08:27:06;;;;;;;3.97;1.13;;;25.90;99.90;;;;;;4985052;28;20038;-70
2022/08/04 08:29:36;;;;;;;3.67;0.70;;;26.00;99.90;;;;;;4983623;28;20812;-71
2022/08/04 08:32:05;;;;;;;4.47;1.05;;;26.10;99.90;;;;;;4984853;28;20997;-70
2022/08/04 08:34:31;;;;;;;1.70;0.65;;;26.00;99.90;;;;;;4983767;28;20025;-69
2022/08/04 08:37:29;;;;;;;7.43;0.70;;;25.90;99.90;;;;;;4986506;28;20034;-69
2022/08/04 08:40:00;;;;;;;2.05;0.77;;;25.80;99.90;;;;;;4985670;28;20041;-71
2022/08/04 08:42:44;;;;;;;2.00;0.47;;;25.80;99.90;;;;;;4983782;28;20666;-70
2022/08/04 08:45:28;;;;;;;2.50;0.55;;;25.80;99.90;;;;;;4986969;28;20052;-69
2022/08/04 08:48:20;;;;;;;4.53;0.88;;;25.80;99.90;;;;;;4982237;28;20057;-70
2022/08/04 08:51:04;;;;;;;2.85;0.52;;;25.90;99.90;;;;;;4986055;28;20145;-70
2022/08/04 08:53:53;;;;;;;2.38;0.55;;;26.00;99.90;;;;;;4983095;28;20072;-69
2022/08/04 08:56:38;;;;;;;1.83;0.40;;;26.10;99.90;;;;;;4980822;28;20145;-69
2022/08/04 08:59:34;;;;;;;5.32;1.08;;;26.00;99.90;;;;;;4983617;28;20046;-69
2022/08/04 09:02:37;;;;;;;3.72;0.30;;;26.10;99.90;;;;;;4981803;28;20042;-69
2022/08/04 09:05:20;;;;;;;4.85;0.68;;;26.10;99.90;;;;;;4984310;28;20042;-68
2022/08/04 09:08:04;;;;;;;1.23;0.17;;;26.20;99.90;;;;;;4985096;28;20058;-69
2022/08/04 09:10:30;;;;;;;1.75;0.32;;;26.30;99.90;;;;;;4983657;28;20048;-69
2022/08/04 09:13:04;;;;;;;3.75;0.30;;;26.30;99.90;;;;;;4982305;28;20047;-69
2022/08/04 09:15:33;;;;;;;4.18;0.80;;;26.40;99.90;;;;;;4983586;28;20034;-68
2022/08/04 09:18:04;;;;;;;0.77;0.30;;;26.60;99.90;;;;;;4983828;28;20133;-69
2022/08/04 09:20:39;;;;;;;2.72;0.47;;;26.80;99.70;;;;;;4981544;28;20475;-69
2022/08/04 09:23:31;;;;;;;1.95;0.40;;;27.00;99.00;;;;;;4984348;28;20074;-68
2022/08/04 09:26:10;;;;;;;5.65;0.60;;;27.20;99.20;;;;;;4980593;28;20771;-68
2022/08/04 09:29:07;;;;;;;2.15;0.28;;;27.30;99.00;;;;;;4984536;28;20510;-68
2022/08/04 09:31:42;;;;;;;7.05;0.73;;;27.40;98.90;;;;;;4987651;28;20049;-70
2022/08/04 09:34:16;;;;;;;2.17;0.55;;;27.50;98.60;;;;;;4980005;28;20391;-69
2022/08/04 09:36:49;;;;;;;1.17;0.28;;;27.40;98.50;;;;;;4977539;28;20462;-68
2022/08/04 09:39:18;;;;;;;1.52;0.55;;;27.30;99.20;;;;;;4980590;28;20034;-69
2022/08/04 09:42:01;;;;;;;1.63;0.55;;;27.20;98.50;;;;;;4983686;28;20042;-69
2022/08/04 09:44:59;;;;;;;2.63;0.70;;;27.10;98.90;;;;;;4981875;28;20041;-69
2022/08/04 09:47:36;;;;;;;4.10;0.43;;;27.00;98.40;;;;;;4981978;28;20037;-69
2022/08/04 09:50:25;;;;;;;3.42;1.13;;;27.00;97.80;;;;;;4981896;28;20662;-69
2022/08/04 09:53:27;;;;;;;1.50;0.75;;;26.90;97.30;;;;;;4977849;28;20077;-70
2022/08/04 09:56:31;;;;;;;2.78;0.90;;;26.80;97.90;;;;;;4979530;28;20038;-71
2022/08/04 09:59:17;;;;;;;2.90;0.63;;;26.90;97.90;;;;;;4981686;28;20117;-69
2022/08/04 10:01:45;;;;;;;1.08;0.47;;;26.80;97.80;;;;;;4981484;28;20107;-69
2022/08/04 10:04:13;;;;;;;3.20;0.40;;;26.70;97.50;;;;;;4980174;28;20486;-69
2022/08/04 10:06:59;;;;;;;3.45;0.32;;;26.50;97.50;;;;;;4982140;28;20088;-69
2022/08/04 10:10:01;;;;;;;1.40;0.40;;;26.30;97.80;;;;;;5009661;28;20037;-70
2022/08/04 10:12:39;;;;;;;1.27;0.28;;;26.20;97.50;;;;;;4979506;28;20468;-70
2022/08/04 10:15:26;;;;;;;3.28;0.88;;;26.10;97.50;;;;;;4982558;28;20034;-68
2022/08/04 10:18:29;;;;;;;1.33;0.47;;;25.90;97.60;;;;;;5011049;28;20057;-71
2022/08/04 10:21:18;;;;;;;1.25;0.60;;;25.80;97.90;;;;;;4971083;28;20074;-69
2022/08/04 10:24:19;;;;;;;1.65;0.40;;;25.70;98.30;;;;;;5008752;28;20150;-69
2022/08/04 10:26:52;;;;;;;0.80;0.45;;;25.60;98.00;;;;;;4978050;28;20169;-68
2022/08/04 10:29:30;;;;;;;2.22;0.80;;;25.50;98.40;;;;;;4976560;28;20034;-69
2022/08/04 10:32:08;;;;;;;2.15;0.52;;;25.40;98.50;;;;;;4978540;28;20053;-69
2022/08/04 10:35:02;;;;;;;3.05;0.52;;;25.30;98.50;;;;;;4976564;28;20058;-69
2022/08/04 10:37:48;;;;;;;2.28;0.47;;;25.30;98.50;;;;;;4980518;28;20050;-68
2022/08/04 10:40:46;;;;;;;1.75;0.40;;;25.20;98.30;;;;;;4978231;28;20125;-70
2022/08/04 10:43:24;;;;;;;1.88;0.47;;;25.20;98.40;;;;;;4980829;28;20034;-70
2022/08/04 10:46:09;;;;;;;3.00;0.68;;;25.20;98.50;;;;;;4982337;28;20545;-69
2022/08/04 10:48:57;;;;;;;1.02;0.50;;;25.10;98.50;;;;;;4980913;28;20925;-69
2022/08/04 10:51:52;;;;;;;0.57;0.40;;;25.20;98.10;;;;;;4978723;28;20018;-70
2022/08/04 10:54:30;;;;;;;4.00;0.57;;;25.20;98.40;;;;;;4976681;28;20056;-69
2022/08/04 10:57:03;;;;;;;0.80;0.38;;;25.20;98.70;;;;;;4978693;28;20047;-68
2022/08/04 10:59:53;;;;;;;1.40;0.20;;;25.30;98.30;;;;;;4977745;28;20963;-70
2022/08/04 11:02:38;;;;;;;1.33;0.40;;;25.40;98.90;;;;;;4978025;28;20117;-69
2022/08/04 11:05:20;;;;;;;0.43;0.25;;;25.60;98.80;;;;;;4979618;28;20475;-69
2022/08/04 11:07:51;;;;;;;1.42;0.35;;;25.60;97.90;;;;;;4979615;28;20038;-70
2022/08/04 11:10:21;;;;;;;0.82;0.20;;;25.60;97.80;;;;;;4981388;28;20112;-70
2022/08/04 11:12:52;;;;;;;0.63;0.20;;;25.80;97.90;;;;;;4979202;28;20042;-69
2022/08/04 11:15:23;;;;;;;1.60;0.20;;;26.00;97.40;;;;;;4980509;28;20033;-69
2022/08/04 11:17:56;;;;;;;2.22;0.35;;;26.20;97.30;;;;;;4980465;28;20042;-68
2022/08/04 11:20:40;;;;;;;3.13;0.30;;;26.40;97.20;;;;;;4982055;28;20062;-66
2022/08/04 11:23:11;;;;;;;2.70;0.30;;;26.70;97.20;;;;;;4975735;28;20949;-68
2022/08/04 11:25:59;;;;;;;1.17;0.30;;;26.90;96.80;;;;;;4979279;28;20038;-69
2022/08/04 11:28:52;;;;;;;1.23;0.40;;;27.10;96.60;;;;;;4981247;28;20539;-69
2022/08/04 11:31:23;;;;;;;0.52;0.25;;;27.20;96.20;;;;;;4981159;28;20112;-69
2022/08/04 11:34:10;;;;;;;4.25;0.60;;;27.30;96.40;;;;;;4980391;28;20149;-68
2022/08/04 11:36:54;;;;;;;0.65;0.30;;;27.30;95.90;;;;;;5010714;28;20166;-70
2022/08/04 11:39:26;;;;;;;2.00;0.40;;;27.10;96.20;;;;;;4978565;28;20411;-69
2022/08/04 11:41:58;;;;;;;1.23;0.22;;;27.00;96.60;;;;;;4980655;28;20752;-69
2022/08/04 11:44:42;;;;;;;0.95;0.35;;;26.90;96.40;;;;;;4979662;28;20034;-69
2022/08/04 11:47:19;;;;;;;0.82;0.40;;;27.00;96.70;;;;;;5013826;28;20085;-69
2022/08/04 11:49:51;;;;;;;1.05;0.30;;;26.90;96.80;;;;;;4979813;28;20791;-69
2022/08/04 11:52:19;;;;;;;1.58;0.40;;;27.00;96.80;;;;;;4981056;28;20058;-68
2022/08/04 11:54:46;;;;;;;0.57;0.25;;;27.00;96.40;;;;;;4979692;28;20084;-70
2022/08/04 11:57:13;;;;;;;2.47;0.88;;;27.00;96.50;;;;;;4983774;28;20049;-69
2022/08/04 11:59:41;;;;;;;3.17;0.47;;;27.00;96.50;;;;;;4980441;28;20073;-69
2022/08/04 12:02:25;;;;;;;6.50;0.60;;;27.10;96.20;;;;;;4980258;28;20034;-69
2022/08/04 12:04:59;;;;;;;0.90;0.50;;;27.00;96.40;;;;;;4979566;28;20495;-69
2022/08/04 12:07:44;;;;;;;2.80;0.47;;;27.00;96.50;;;;;;4981980;28;20053;-69
2022/08/04 12:10:23;;;;;;;1.23;0.38;;;27.00;96.50;;;;;;4978849;28;20038;-68
2022/08/04 12:13:05;;;;;;;0.85;0.60;;;27.00;96.80;;;;;;4981253;28;20626;-69
2022/08/04 12:15:43;;;;;;;2.38;0.80;;;27.00;96.40;;;;;;4980540;28;20092;-69
2022/08/04 12:18:33;;;;;;;1.90;0.52;;;27.10;96.10;;;;;;5009410;28;20046;-69
2022/08/04 12:21:22;;;;;;;;;;;27.10;96.30;;;;;;4982658;28;20045;-69
2022/08/04 12:23:50;;;;;;;0.77;0.20;;;27.10;96.80;;;;;;4961931;28;19983;-68
2022/08/04 12:26:24;;;;;;;1.05;0.35;;;27.20;96.20;;;;;;4979960;28;20050;-70
2022/08/04 12:28:54;;;;;;;2.20;0.45;;;27.10;96.40;;;;;;4981330;28;20126;-69
2022/08/04 12:31:35;;;;;;;2.15;0.43;;;27.20;96.10;;;;;;4983678;28;20038;-69
2022/08/04 12:34:09;;;;;;;0.65;0.30;;;27.30;95.80;;;;;;4979504;28;20038;-69
2022/08/04 12:36:46;;;;;;;1.30;0.50;;;27.20;95.60;;;;;;4980546;28;20042;-69
2022/08/04 12:39:18;;;;;;;3.13;0.85;;;27.10;95.60;;;;;;4985313;28;20100;-70
2022/08/04 12:41:57;;;;;;;3.38;1.00;;;27.10;95.60;;;;;;4985637;28;20034;-68
2022/08/04 12:44:29;;;;;;;2.78;0.40;;;26.90;95.30;;;;;;5016352;28;20049;-69
2022/08/04 12:46:56;;;;;;;3.65;1.00;;;26.80;95.40;;;;;;4985967;28;20141;-70
2022/08/04 12:49:23;;;;;;;1.33;0.68;;;26.80;95.60;;;;;;4985281;28;20537;-69
2022/08/04 12:51:49;;;;;;;2.25;0.40;;;26.80;96.10;;;;;;4984372;28;20109;-68
2022/08/04 12:54:24;;;;;;;1.25;0.38;;;26.80;95.80;;;;;;4984683;28;20027;-70
2022/08/04 12:56:50;;;;;;;4.70;0.50;;;26.90;95.80;;;;;;4982912;28;20058;-70
2022/08/04 12:59:16;;;;;;;2.03;0.40;;;26.80;95.70;;;;;;5017599;28;20037;-74
2022/08/04 13:01:47;;;;;;;0.75;0.40;;;26.80;95.50;;;;;;4984454;28;20046;-69
2022/08/04 13:04:20;;;;;;;1.35;0.20;;;26.70;95.40;;;;;;4981979;28;20037;-70
2022/08/04 13:07:19;;;;;;;1.00;0.38;;;26.60;95.30;;;;;;4983568;28;20042;-68
2022/08/04 13:09:45;;;;;;;1.83;0.28;;;26.70;95.60;;;;;;4986241;28;20554;-69
2022/08/04 13:12:14;;;;;;;0.90;0.20;;;26.70;95.40;;;;;;4984216;28;20137;-70
2022/08/04 13:14:44;;;;;;;2.45;0.50;;;26.90;95.30;;;;;;4983562;28;20030;-70
2022/08/04 13:17:11;;;;;;;1.77;0.40;;;27.00;94.90;;;;;;4984851;28;20040;-70
2022/08/04 13:19:37;;;;;;;1.23;0.40;;;27.00;94.40;;;;;;4983430;28;20039;-69
2022/08/04 13:22:04;;;;;;;0.85;0.30;;;26.90;94.30;;;;;;4983269;28;20034;-68
2022/08/04 13:24:33;;;;;;;2.90;0.70;;;27.00;94.80;;;;;;4982153;28;20031;-69
2022/08/04 13:27:08;;;;;;;1.70;0.68;;;27.10;94.60;;;;;;4982792;28;20034;-70
2022/08/04 13:29:40;;;;;;;1.65;0.50;;;27.20;94.80;;;;;;4983220;28;20109;-67
2022/08/04 13:32:07;;;;;;;0.85;0.20;;;27.40;94.90;;;;;;4982972;28;20057;-69
2022/08/04 13:34:34;;;;;;;2.88;0.50;;;27.40;94.50;;;;;;4982339;28;20058;-69
2022/08/04 13:37:01;;;;;;;3.45;0.52;;;27.40;94.20;;;;;;4983196;28;20112;-70
2022/08/04 13:39:28;;;;;;;1.88;0.43;;;27.40;94.40;;;;;;4982873;28;20039;-69